Latest Weather Observations for Hillarys Point Boat Harbour

IDW60801

Issued at 8:04 pm WST Sunday 28 May 2017 (issued every 30 minutes, with the page automatically refreshed every 10 minutes)

About weather observations | Map of weather stations | Latest weather observations for WA | Other Formats
Station Details ID: 009265 Name: HILLARYS BOAT HARBOUR NTC AWS Lat: -31.83 Lon: 115.74 Height: 0.0 m
Data from the previous 72 hours. | See also: Recent months for locations in Western Australia
Date/Time
WST
Temp
°C
App
Temp
°C
Dew
Point
°C
Rel
Hum
%
Delta-T
°C
Wind Press
QNH
hPa
Press
MSL
hPa
Rain since
9am
mm
Dir  Spd
km/h
Gust
km/h
Spd
kts
Gust
kts
28/08:00pm 14.8 - - - - SE 2 6 1 3 1025.3 1025.3 -
28/07:30pm 14.9 - - - - ESE 2 7 1 4 1024.9 1024.9 -
28/07:00pm 15.8 - - - - SE 6 9 3 5 1024.6 1024.6 -
28/06:30pm 16.5 - - - - SSE 9 17 5 9 1024.2 1024.2 -
28/06:00pm 16.9 - - - - SSE 9 19 5 10 1023.8 1023.8 -
28/05:30pm 17.0 - - - - S 6 15 3 8 1023.7 1023.7 -
28/05:00pm 17.3 - - - - SSW 7 15 4 8 1023.8 1023.8 -
28/04:30pm 17.6 - - - - SSW 6 17 3 9 1023.8 1023.8 -
28/04:00pm 17.7 - - - - SSW 9 15 5 8 1023.8 1023.8 -
28/03:30pm 18.7 - - - - S 6 13 3 7 1023.8 1023.8 -
28/03:00pm 18.5 - - - - SE 6 15 3 8 1023.7 1023.7 -
28/02:30pm 18.5 - - - - S 4 9 2 5 1023.9 1023.9 -
28/02:00pm 18.3 - - - - ESE 6 15 3 8 1024.1 1024.1 -
28/01:30pm 18.0 - - - - ENE 9 13 5 7 1024.2 1024.2 -
28/01:00pm 18.1 - - - - ESE 4 13 2 7 1024.5 1024.5 -
28/12:30pm 17.8 - - - - E 7 20 4 11 1024.8 1024.8 -
28/12:00pm 17.2 - - - - ENE 9 19 5 10 1025.7 1025.7 -
28/11:30am 16.5 - - - - ENE 13 20 7 11 1026.2 1026.2 -
28/11:00am 16.0 - - - - ENE 15 22 8 12 1026.7 1026.7 -
28/10:30am 15.2 - - - - ENE 15 22 8 12 1026.9 1026.9 -
28/10:00am 14.3 - - - - ENE 15 24 8 13 1027.0 1027.0 -
28/09:30am 13.6 - - - - ENE 13 19 7 10 1027.0 1027.0 -
28/09:00am 12.7 - - - - ENE 13 20 7 11 1026.9 1026.9 -
28/08:30am 11.6 - - - - ENE 11 19 6 10 1026.7 1026.7 -
28/08:00am 10.4 - - - - ENE 11 15 6 8 1026.6 1026.6 -
28/07:30am 10.2 - - - - ENE 11 17 6 9 1026.5 1026.5 -
28/07:00am 10.0 - - - - ENE 9 17 5 9 1026.3 1026.3 -
28/06:30am 9.8 - - - - ENE 9 17 5 9 1026.2 1026.2 -
28/06:00am 9.8 - - - - ENE 9 15 5 8 1026.0 1026.0 -
28/05:30am 10.1 - - - - E 7 11 4 6 1026.0 1026.0 -
28/05:00am 10.0 - - - - E 6 9 3 5 1025.9 1025.9 -
28/04:30am 10.1 - - - - E 6 11 3 6 1025.8 1025.8 -
28/04:00am 10.3 - - - - ENE 9 17 5 9 1025.7 1025.7 -
28/03:30am 9.8 - - - - ENE 7 13 4 7 1025.7 1025.7 -
28/03:00am 9.6 - - - - ENE 6 9 3 5 1025.7 1025.7 -
28/02:30am 9.9 - - - - ENE 7 11 4 6 1025.7 1025.7 -
28/02:00am 10.4 - - - - ENE 6 11 3 6 1025.7 1025.7 -
28/01:30am 11.1 - - - - E 4 9 2 5 1025.7 1025.7 -
28/01:00am 11.4 - - - - E 4 9 2 5 1025.8 1025.8 -
28/12:30am 11.6 - - - - E 4 9 2 5 1025.8 1025.8 -
28/12:00am 11.9 - - - - E 4 9 2 5 1025.9 1025.9 -
 
Date/Time
WST
Temp
°C
App
Temp
°C
Dew
Point
°C
Rel
Hum
%
Delta-T
°C
Wind Press
QNH
hPa
Press
MSL
hPa
Rain since
9am
mm
Dir  Spd
km/h
Gust
km/h
Spd
kts
Gust
kts
27/11:30pm 12.6 - - - - E 4 11 2 6 1025.9 1025.9 -
27/11:00pm 12.9 - - - - ESE 2 7 1 4 1026.0 1026.0 -
27/10:30pm 12.7 - - - - E 2 6 1 3 1026.0 1026.0 -
27/10:00pm 12.9 - - - - E 2 6 1 3 1026.1 1026.1 -
27/09:30pm 13.7 - - - - SE 2 7 1 4 1025.9 1025.9 -
27/09:00pm 14.2 - - - - SE 4 9 2 5 1025.8 1025.8 -
27/08:30pm 14.3 - - - - ESE 2 7 1 4 1025.6 1025.6 -
27/08:00pm 14.7 - - - - ESE 2 7 1 4 1025.6 1025.6 -
27/07:30pm 15.1 - - - - SE 4 11 2 6 1025.4 1025.4 -
27/07:00pm 15.7 - - - - SE 7 15 4 8 1025.1 1025.1 -
27/06:30pm 16.4 - - - - SSE 9 13 5 7 1024.8 1024.8 -
27/06:00pm 16.5 - - - - ESE 2 6 1 3 1024.5 1024.5 -
27/05:30pm 17.1 - - - - SE 4 9 2 5 1024.2 1024.2 -
27/05:00pm 17.6 - - - - SSE 6 13 3 7 1024.2 1024.2 -
27/04:30pm 17.7 - - - - SSE 7 13 4 7 1024.1 1024.1 -
27/04:00pm 17.6 - - - - SSE 4 11 2 6 1024.0 1024.0 -
27/03:30pm 17.1 - - - - SSW 9 20 5 11 1024.0 1024.0 -
27/03:00pm 17.2 - - - - SSW 7 15 4 8 1023.9 1023.9 -
27/02:30pm 17.8 - - - - S 6 19 3 10 1023.9 1023.9 -
27/02:00pm 16.6 - - - - SSW 7 17 4 9 1024.2 1024.2 -
27/01:30pm 16.4 - - - - SSW 7 17 4 9 1024.5 1024.5 -
27/01:00pm 16.1 - - - - SW 9 17 5 9 1024.8 1024.8 -
27/12:30pm 16.0 - - - - SSW 7 15 4 8 1025.0 1025.0 -
27/12:00pm 16.6 - - - - SSE 6 15 3 8 1025.3 1025.3 -
27/11:30am 16.2 - - - - ESE 6 13 3 7 1025.7 1025.7 -
27/11:00am 15.7 - - - - ESE 6 13 3 7 1026.0 1026.0 -
27/10:30am 15.3 - - - - SE 6 13 3 7 1026.2 1026.2 -
27/10:00am 14.4 - - - - SE 4 13 2 7 1026.3 1026.3 -
27/09:30am 14.0 - - - - E 6 11 3 6 1026.1 1026.1 -
27/09:00am 13.3 - - - - ENE 4 9 2 5 1025.9 1025.9 -
27/08:30am 12.4 - - - - E 4 7 2 4 1025.6 1025.6 -
27/08:00am 11.4 - - - - E 4 9 2 5 1025.2 1025.2 -
27/07:30am 10.7 - - - - E 2 7 1 4 1025.1 1025.1 -
27/07:00am 10.5 - - - - E 2 6 1 3 1024.6 1024.6 -
27/06:30am 10.9 - - - - E 2 7 1 4 1024.4 1024.4 -
27/06:00am 11.2 - - - - SE 4 9 2 5 1024.2 1024.2 -
27/05:30am 11.3 - - - - ESE 2 11 1 6 1023.9 1023.9 -
27/05:00am 11.5 - - - - SSE 6 13 3 7 1023.6 1023.6 -
27/04:30am 11.7 - - - - SSE 9 15 5 8 1023.3 1023.3 -
27/04:00am 11.8 - - - - SSE 9 17 5 9 1023.4 1023.4 -
27/03:30am 12.3 - - - - SSE 9 17 5 9 1023.3 1023.3 -
27/03:00am 12.4 - - - - SSE 7 15 4 8 1023.1 1023.1 -
27/02:30am 12.2 - - - - ESE 2 9 1 5 1022.9 1022.9 -
27/02:00am 12.6 - - - - SSE 7 15 4 8 1023.1 1023.1 -
27/01:30am 12.9 - - - - SSE 7 15 4 8 1023.1 1023.1 -
27/01:00am 13.3 - - - - SSE 7 13 4 7 1023.0 1023.0 -
27/12:30am 13.6 - - - - SSE 6 11 3 6 1022.9 1022.9 -
27/12:00am 13.4 - - - - ESE 4 7 2 4 1022.7 1022.7 -
 
Date/Time
WST
Temp
°C
App
Temp
°C
Dew
Point
°C
Rel
Hum
%
Delta-T
°C
Wind Press
QNH
hPa
Press
MSL
hPa
Rain since
9am
mm
Dir  Spd
km/h
Gust
km/h
Spd
kts
Gust
kts
26/11:30pm 13.7 - - - - E 2 6 1 3 1022.6 1022.6 -
26/11:00pm 14.3 - - - - SE 2 9 1 5 1022.7 1022.7 -
26/10:30pm 15.2 - - - - SSE 6 11 3 6 1022.7 1022.7 -
26/10:00pm 15.4 - - - - SE 4 11 2 6 1022.7 1022.7 -
26/09:30pm 15.6 - - - - ESE 2 9 1 5 1022.6 1022.6 -
26/09:00pm 15.2 - - - - E 2 6 1 3 1022.5 1022.5 -
26/08:30pm 15.6 - - - - SE 2 7 1 4 1022.3 1022.3 -
26/08:00pm 16.4 - - - - SE 7 13 4 7 1021.9 1021.9 -
26/07:30pm 16.9 - - - - SSE 9 15 5 8 1021.8 1021.8 -
26/07:00pm 17.2 - - - - SSE 9 19 5 10 1021.5 1021.5 -
26/06:30pm 17.3 - - - - SSE 7 19 4 10 1021.1 1021.1 -
26/06:00pm 17.4 - - - - SSE 7 15 4 8 1020.8 1020.8 -
26/05:30pm 17.5 - - - - S 6 15 3 8 1020.5 1020.5 -
26/05:00pm 17.8 - - - - SSW 7 19 4 10 1020.3 1020.3 -
26/04:30pm 18.2 - - - - SSW 6 17 3 9 1020.2 1020.2 -
26/04:00pm 17.9 - - - - SSW 9 19 5 10 1020.1 1020.1 -
26/03:30pm 18.2 - - - - SSW 9 20 5 11 1019.9 1019.9 -
26/03:00pm 17.9 - - - - SSW 11 20 6 11 1019.9 1019.9 -
26/02:30pm 18.1 - - - - SSW 7 15 4 8 1019.9 1019.9 -
26/02:00pm 18.0 - - - - SSW 9 19 5 10 1020.0 1020.0 -
26/01:30pm 18.1 - - - - SSW 7 19 4 10 1020.0 1020.0 -
26/01:00pm 18.4 - - - - SSW 7 17 4 9 1020.1 1020.1 -
26/12:30pm 18.8 - - - - S 6 11 3 6 1020.3 1020.3 -
26/12:00pm 18.5 - - - - SSW 6 15 3 8 1020.6 1020.6 -
26/11:30am 18.4 - - - - S 6 15 3 8 1021.0 1021.0 -
26/11:00am 18.6 - - - - S 4 11 2 6 1021.0 1021.0 -
26/10:30am 18.1 - - - - S 6 11 3 6 1021.0 1021.0 -
26/10:00am 17.4 - - - - SSE 7 15 4 8 1020.9 1020.9 -
26/09:30am 17.0 - - - - SSE 7 11 4 6 1020.7 1020.7 -
26/09:00am 16.8 - - - - SE 6 11 3 6 1020.7 1020.7 -
26/08:30am 16.7 - - - - E 6 11 3 6 1020.4 1020.4 -
26/08:00am 18.3 - - - - SSW 11 26 6 14 1020.1 1020.1 -
26/07:30am 18.4 - - - - SSW 15 28 8 15 1019.6 1019.6 -
26/07:00am 16.3 - - - - SSE 6 19 3 10 1019.5 1019.5 -
26/06:30am 16.6 - - - - S 9 24 5 13 1019.3 1019.3 -
26/06:00am 16.3 - - - - SSW 11 24 6 13 1019.0 1019.0 -
26/05:30am 17.1 - - - - SSW 13 30 7 16 1018.6 1018.6 -
26/05:00am 19.4 - - - - WSW 20 35 11 19 1018.2 1018.2 -
26/04:30am 19.6 - - - - WSW 15 24 8 13 1018.1 1018.1 -
26/04:00am 19.7 - - - - W 13 20 7 11 1018.2 1018.2 -
26/03:30am 19.8 - - - - WSW 15 24 8 13 1018.3 1018.3 -
26/03:00am 19.6 - - - - WSW 15 24 8 13 1018.2 1018.2 -
26/02:30am 19.3 - - - - W 11 20 6 11 1018.3 1018.3 -
26/02:00am 19.3 - - - - WSW 17 24 9 13 1018.4 1018.4 -
26/01:30am 19.4 - - - - W 13 19 7 10 1018.3 1018.3 -
26/01:00am 19.2 - - - - W 9 13 5 7 1018.3 1018.3 -
26/12:30am 19.2 - - - - W 9 15 5 8 1018.6 1018.6 -
26/12:00am 19.1 - - - - WSW 11 17 6 9 1018.7 1018.7 -
 
Date/Time
WST
Temp
°C
App
Temp
°C
Dew
Point
°C
Rel
Hum
%
Delta-T
°C
Wind Press
QNH
hPa
Press
MSL
hPa
Rain since
9am
mm
Dir  Spd
km/h
Gust
km/h
Spd
kts
Gust
kts
25/11:30pm 19.1 - - - - WSW 17 22 9 12 1019.0 1019.0 -
25/11:00pm 19.1 - - - - WSW 19 26 10 14 1019.2 1019.2 -
25/10:30pm 19.1 - - - - WSW 19 24 10 13 1019.3 1019.3 -
25/10:00pm 19.3 - - - - WSW 15 24 8 13 1019.3 1019.3 -
25/09:30pm 19.3 - - - - W 13 19 7 10 1019.2 1019.2 -
25/09:00pm 19.4 - - - - WSW 13 20 7 11 1019.2 1019.2 -
25/08:30pm 19.3 - - - - W 15 22 8 12 1019.2 1019.2 -

Other Formats:

Comma delimited format used in spreadsheet applications
http://www.bom.gov.au/fwo/IDW60801/IDW60801.95605.axf

JavaScript Object Notation format (JSON) in row-major order
http://www.bom.gov.au/fwo/IDW60801/IDW60801.95605.json